SWA3097 KAUS-KSNA
Flight info
| Callsign | SWA3097 |
|---|---|
| Flight time | 3h 5m |
| Altitude | 36000 |
| Route | MUCKY3 MUCKY JCT PEQ ITUCO HRRBR EMLLD DSNEE6 |
| Aircraft | B737/M-SADE2E3GIJ4RWZ/LB1D1 |
Departure
| Time | 2026-04-29 15:30 |
|---|---|
| Airport | Austin Bergstrom International Airport (KAUS) |
Arrival
| Time | 2026-04-29 18:36 |
|---|---|
| Airport | John Wayne Orange County International Airport (KSNA) |
| Time | Latitude | Longitude | Altitude | Speed | Heading |
|---|---|---|---|---|---|
| 2026-04-29 14:33 | 30.20282 | -97.66977 | 526 ft | 0 kts | 150° |
| 2026-04-29 15:19 | 30.20292 | -97.66983 | 526 ft | 2 kts | 150° |
| 2026-04-29 15:19 | 30.20312 | -97.66997 | 526 ft | 4 kts | 150° |
| 2026-04-29 15:19 | 30.20316 | -97.66999 | 526 ft | 1 kts | 150° |
| 2026-04-29 15:22 | 30.20309 | -97.66999 | 526 ft | 2 kts | 184° |
| 2026-04-29 15:22 | 30.20308 | -97.67015 | 526 ft | 3 kts | 294° |
| 2026-04-29 15:22 | 30.20322 | -97.67057 | 526 ft | 8 kts | 279° |
| 2026-04-29 15:23 | 30.20322 | -97.67136 | 526 ft | 12 kts | 269° |
| 2026-04-29 15:23 | 30.20313 | -97.67242 | 526 ft | 13 kts | 232° |
| 2026-04-29 15:23 | 30.20229 | -97.67257 | 526 ft | 12 kts | 179° |
| 2026-04-29 15:23 | 30.20145 | -97.67254 | 526 ft | 12 kts | 178° |
| 2026-04-29 15:24 | 30.20064 | -97.67252 | 526 ft | 12 kts | 175° |
| 2026-04-29 15:24 | 30.20028 | -97.67184 | 526 ft | 11 kts | 88° |
| 2026-04-29 15:24 | 30.20030 | -97.67095 | 526 ft | 11 kts | 89° |
| 2026-04-29 15:24 | 30.20032 | -97.67008 | 526 ft | 11 kts | 89° |
| 2026-04-29 15:25 | 30.20033 | -97.66924 | 526 ft | 10 kts | 92° |
| 2026-04-29 15:25 | 30.20016 | -97.66844 | 526 ft | 10 kts | 106° |
| 2026-04-29 15:25 | 30.20001 | -97.66758 | 526 ft | 12 kts | 96° |
| 2026-04-29 15:25 | 30.19959 | -97.66690 | 526 ft | 12 kts | 170° |
| 2026-04-29 15:26 | 30.19908 | -97.66626 | 526 ft | 13 kts | 90° |
| 2026-04-29 15:26 | 30.19910 | -97.66520 | 526 ft | 14 kts | 89° |
| 2026-04-29 15:26 | 30.19912 | -97.66406 | 526 ft | 15 kts | 89° |
| 2026-04-29 15:26 | 30.19915 | -97.66284 | 526 ft | 16 kts | 89° |
| 2026-04-29 15:27 | 30.19917 | -97.66155 | 526 ft | 16 kts | 88° |
| 2026-04-29 15:27 | 30.19920 | -97.66027 | 526 ft | 16 kts | 89° |
| 2026-04-29 15:27 | 30.19945 | -97.65910 | 526 ft | 15 kts | 29° |
| 2026-04-29 15:27 | 30.20049 | -97.65907 | 526 ft | 15 kts | 359° |
| 2026-04-29 15:28 | 30.20153 | -97.65911 | 526 ft | 15 kts | 358° |
| 2026-04-29 15:28 | 30.20222 | -97.65912 | 526 ft | 14 kts | 359° |
| 2026-04-29 15:28 | 30.20335 | -97.65915 | 527 ft | 10 kts | 2° |
| 2026-04-29 15:28 | 30.20372 | -97.65855 | 527 ft | 10 kts | 87° |
| 2026-04-29 15:29 | 30.20348 | -97.65791 | 528 ft | 10 kts | 167° |
| 2026-04-29 15:29 | 30.20109 | -97.65783 | 525 ft | 67 kts | 179° |
| 2026-04-29 15:30 | 30.18306 | -97.65736 | 697 ft | 170 kts | 178° |
| 2026-04-29 15:30 | 30.17140 | -97.65689 | 1503 ft | 168 kts | 178° |
| 2026-04-29 15:30 | 30.15936 | -97.65635 | 2067 ft | 184 kts | 177° |
| 2026-04-29 15:30 | 30.14568 | -97.65560 | 2386 ft | 211 kts | 178° |
| 2026-04-29 15:31 | 30.13016 | -97.65653 | 2623 ft | 236 kts | 195° |
| 2026-04-29 15:31 | 30.11552 | -97.66666 | 2916 ft | 259 kts | 227° |
| 2026-04-29 15:31 | 30.10688 | -97.68528 | 3706 ft | 267 kts | 257° |
| 2026-04-29 15:31 | 30.10679 | -97.70654 | 4653 ft | 269 kts | 279° |
| 2026-04-29 15:32 | 30.11083 | -97.72756 | 5538 ft | 272 kts | 282° |
| 2026-04-29 15:32 | 30.11572 | -97.74864 | 6419 ft | 276 kts | 284° |
| 2026-04-29 15:32 | 30.12142 | -97.76952 | 7286 ft | 280 kts | 286° |
| 2026-04-29 15:32 | 30.12753 | -97.79108 | 8120 ft | 285 kts | 286° |
| 2026-04-29 15:33 | 30.13377 | -97.81300 | 8999 ft | 289 kts | 286° |
| 2026-04-29 15:33 | 30.14003 | -97.83514 | 9869 ft | 293 kts | 286° |
| 2026-04-29 15:33 | 30.14638 | -97.85779 | 10681 ft | 303 kts | 286° |
| 2026-04-29 15:33 | 30.15310 | -97.88201 | 10920 ft | 331 kts | 286° |
| 2026-04-29 15:34 | 30.16034 | -97.90829 | 11165 ft | 354 kts | 286° |
| 2026-04-29 15:34 | 30.16794 | -97.93584 | 11766 ft | 363 kts | 286° |
| 2026-04-29 15:34 | 30.17561 | -97.96363 | 12710 ft | 362 kts | 286° |
| 2026-04-29 15:34 | 30.18326 | -97.99139 | 13634 ft | 363 kts | 286° |
| 2026-04-29 15:35 | 30.19091 | -98.01921 | 14509 ft | 363 kts | 285° |
| 2026-04-29 15:35 | 30.19855 | -98.04703 | 15396 ft | 363 kts | 285° |
| 2026-04-29 15:35 | 30.20616 | -98.07487 | 16279 ft | 363 kts | 285° |
| 2026-04-29 15:35 | 30.21376 | -98.10278 | 17117 ft | 364 kts | 285° |
| 2026-04-29 15:36 | 30.22136 | -98.13071 | 17940 ft | 364 kts | 284° |
| 2026-04-29 15:36 | 30.22897 | -98.15865 | 18719 ft | 365 kts | 284° |
| 2026-04-29 15:36 | 30.23660 | -98.18673 | 19342 ft | 370 kts | 284° |
| 2026-04-29 15:36 | 30.24437 | -98.21535 | 19905 ft | 375 kts | 285° |
| 2026-04-29 15:37 | 30.25221 | -98.24423 | 20478 ft | 379 kts | 284° |
| 2026-04-29 15:37 | 30.26014 | -98.27347 | 21037 ft | 383 kts | 284° |
| 2026-04-29 15:37 | 30.26815 | -98.30303 | 21562 ft | 387 kts | 284° |
| 2026-04-29 15:37 | 30.27622 | -98.33283 | 22009 ft | 391 kts | 285° |
| 2026-04-29 15:38 | 30.28440 | -98.36302 | 22478 ft | 395 kts | 285° |
| 2026-04-29 15:38 | 30.29262 | -98.39344 | 22966 ft | 397 kts | 285° |
| 2026-04-29 15:38 | 30.30089 | -98.42404 | 23415 ft | 400 kts | 285° |
| 2026-04-29 15:38 | 30.30922 | -98.45492 | 23859 ft | 403 kts | 285° |
| 2026-04-29 15:39 | 30.31758 | -98.48595 | 24276 ft | 405 kts | 285° |
| 2026-04-29 15:39 | 30.32599 | -98.51717 | 24697 ft | 407 kts | 285° |
| 2026-04-29 15:39 | 30.33442 | -98.54849 | 25148 ft | 408 kts | 285° |
| 2026-04-29 15:39 | 30.34286 | -98.57990 | 25606 ft | 408 kts | 285° |
| 2026-04-29 15:40 | 30.35127 | -98.61128 | 26016 ft | 409 kts | 285° |
| 2026-04-29 15:40 | 30.35969 | -98.64274 | 26449 ft | 409 kts | 285° |
| 2026-04-29 15:40 | 30.36812 | -98.67418 | 26892 ft | 409 kts | 285° |
| 2026-04-29 15:40 | 30.37643 | -98.70525 | 27253 ft | 410 kts | 285° |
| 2026-04-29 15:41 | 30.38496 | -98.73723 | 27583 ft | 411 kts | 285° |
| 2026-04-29 15:41 | 30.39329 | -98.76845 | 27971 ft | 411 kts | 285° |
| 2026-04-29 15:41 | 30.40172 | -98.80003 | 28434 ft | 409 kts | 286° |
| 2026-04-29 15:41 | 30.41009 | -98.83142 | 28975 ft | 405 kts | 285° |
| 2026-04-29 15:42 | 30.41827 | -98.86239 | 29630 ft | 399 kts | 285° |
| 2026-04-29 15:42 | 30.42490 | -98.89322 | 30257 ft | 393 kts | 282° |
| 2026-04-29 15:42 | 30.43085 | -98.92409 | 30770 ft | 391 kts | 282° |
| 2026-04-29 15:42 | 30.43662 | -98.95486 | 31208 ft | 391 kts | 282° |
| 2026-04-29 15:43 | 30.44236 | -98.98565 | 31682 ft | 390 kts | 282° |
| 2026-04-29 15:43 | 30.44809 | -99.01623 | 32225 ft | 387 kts | 282° |
| 2026-04-29 15:43 | 30.45382 | -99.04670 | 32740 ft | 385 kts | 282° |
| 2026-04-29 15:43 | 30.45954 | -99.07696 | 33228 ft | 383 kts | 283° |
| 2026-04-29 15:44 | 30.46523 | -99.10702 | 33721 ft | 381 kts | 282° |
| 2026-04-29 15:44 | 30.47091 | -99.13693 | 34139 ft | 380 kts | 283° |
| 2026-04-29 15:44 | 30.47657 | -99.16682 | 34543 ft | 378 kts | 283° |
| 2026-04-29 15:44 | 30.48221 | -99.19659 | 34936 ft | 377 kts | 282° |
| 2026-04-29 15:45 | 30.48781 | -99.22620 | 35330 ft | 376 kts | 282° |
| 2026-04-29 15:45 | 30.49338 | -99.25571 | 35764 ft | 373 kts | 282° |
| 2026-04-29 15:45 | 30.49892 | -99.28506 | 36003 ft | 374 kts | 282° |
| 2026-04-29 15:46 | 30.51004 | -99.34412 | 36020 ft | 375 kts | 282° |
| 2026-04-29 15:46 | 30.52110 | -99.40305 | 36024 ft | 374 kts | 282° |
| 2026-04-29 15:47 | 30.53211 | -99.46184 | 36024 ft | 372 kts | 282° |
| 2026-04-29 15:47 | 30.54305 | -99.52042 | 36031 ft | 371 kts | 282° |
| 2026-04-29 15:48 | 30.55394 | -99.57890 | 36031 ft | 370 kts | 282° |
| 2026-04-29 15:48 | 30.56480 | -99.63730 | 36026 ft | 370 kts | 282° |
| 2026-04-29 15:49 | 30.57560 | -99.69560 | 36024 ft | 370 kts | 282° |
| 2026-04-29 15:49 | 30.58641 | -99.75412 | 36032 ft | 370 kts | 282° |
| 2026-04-29 15:50 | 30.59721 | -99.81256 | 36030 ft | 371 kts | 282° |
| 2026-04-29 15:50 | 30.61067 | -99.87026 | 36031 ft | 372 kts | 285° |
| 2026-04-29 15:51 | 30.62518 | -99.92792 | 36029 ft | 372 kts | 285° |
| 2026-04-29 15:51 | 30.63968 | -99.98574 | 36041 ft | 373 kts | 285° |
| 2026-04-29 15:52 | 30.65406 | -100.04365 | 36041 ft | 373 kts | 285° |
| 2026-04-29 15:52 | 30.66833 | -100.10152 | 36053 ft | 374 kts | 285° |
| 2026-04-29 15:53 | 30.68252 | -100.15924 | 36040 ft | 374 kts | 285° |
| 2026-04-29 15:53 | 30.69677 | -100.21734 | 36052 ft | 374 kts | 285° |
| 2026-04-29 15:54 | 30.71094 | -100.27529 | 36056 ft | 374 kts | 285° |
| 2026-04-29 15:54 | 30.72512 | -100.33340 | 36068 ft | 373 kts | 284° |
| 2026-04-29 15:55 | 30.73926 | -100.39149 | 36058 ft | 373 kts | 284° |
| 2026-04-29 15:55 | 30.75336 | -100.44951 | 36060 ft | 373 kts | 284° |
| 2026-04-29 15:56 | 30.76742 | -100.50743 | 36063 ft | 372 kts | 284° |
| 2026-04-29 15:56 | 30.78142 | -100.56526 | 36071 ft | 371 kts | 284° |
| 2026-04-29 15:57 | 30.79538 | -100.62304 | 36073 ft | 370 kts | 284° |
| 2026-04-29 15:57 | 30.80923 | -100.68057 | 36074 ft | 370 kts | 284° |
| 2026-04-29 15:58 | 30.82073 | -100.72839 | 36081 ft | 369 kts | 284° |
| 2026-04-29 15:58 | 30.83454 | -100.78590 | 36083 ft | 369 kts | 284° |
| 2026-04-29 15:59 | 30.85053 | -100.85267 | 36084 ft | 368 kts | 284° |
| 2026-04-29 15:59 | 30.86202 | -100.90074 | 36087 ft | 368 kts | 284° |
| 2026-04-29 16:00 | 30.87570 | -100.95810 | 36093 ft | 367 kts | 284° |
| 2026-04-29 16:00 | 30.88934 | -101.01543 | 36093 ft | 368 kts | 284° |
| 2026-04-29 16:01 | 30.90294 | -101.07277 | 36094 ft | 368 kts | 284° |
| 2026-04-29 16:01 | 30.91646 | -101.12978 | 36092 ft | 368 kts | 284° |
| 2026-04-29 16:02 | 30.93006 | -101.18723 | 36092 ft | 368 kts | 284° |
| 2026-04-29 16:02 | 30.94361 | -101.24466 | 36092 ft | 368 kts | 283° |
| 2026-04-29 16:03 | 30.95716 | -101.30216 | 36092 ft | 368 kts | 283° |
| 2026-04-29 16:03 | 30.97062 | -101.35947 | 36100 ft | 368 kts | 283° |
| 2026-04-29 16:04 | 30.98414 | -101.41709 | 36101 ft | 368 kts | 283° |
| 2026-04-29 16:04 | 30.99757 | -101.47447 | 36104 ft | 369 kts | 283° |
| 2026-04-29 16:05 | 31.01103 | -101.53218 | 36107 ft | 369 kts | 283° |
| 2026-04-29 16:05 | 31.02449 | -101.58995 | 36094 ft | 369 kts | 283° |
| 2026-04-29 16:06 | 31.03793 | -101.64775 | 36102 ft | 369 kts | 283° |
| 2026-04-29 16:06 | 31.05117 | -101.70483 | 36098 ft | 369 kts | 283° |
| 2026-04-29 16:07 | 31.06465 | -101.76307 | 36097 ft | 368 kts | 283° |
| 2026-04-29 16:07 | 31.07797 | -101.82075 | 36100 ft | 368 kts | 283° |
| 2026-04-29 16:08 | 31.09124 | -101.87832 | 36100 ft | 367 kts | 283° |
| 2026-04-29 16:08 | 31.10445 | -101.93585 | 36101 ft | 367 kts | 283° |
| 2026-04-29 16:09 | 31.11764 | -101.99335 | 36098 ft | 367 kts | 283° |
| 2026-04-29 16:09 | 31.13080 | -102.05085 | 36099 ft | 367 kts | 282° |
| 2026-04-29 16:10 | 31.14394 | -102.10839 | 36101 ft | 367 kts | 282° |
| 2026-04-29 16:10 | 31.15695 | -102.16553 | 36096 ft | 366 kts | 282° |
| 2026-04-29 16:11 | 31.17000 | -102.22289 | 36095 ft | 366 kts | 282° |
| 2026-04-29 16:11 | 31.18304 | -102.28038 | 36090 ft | 366 kts | 282° |
| 2026-04-29 16:12 | 31.19606 | -102.33788 | 36070 ft | 367 kts | 282° |
| 2026-04-29 16:12 | 31.20908 | -102.39552 | 36057 ft | 367 kts | 282° |
| 2026-04-29 16:13 | 31.22206 | -102.45314 | 36062 ft | 367 kts | 282° |
| 2026-04-29 16:13 | 31.23494 | -102.51044 | 36066 ft | 366 kts | 282° |
| 2026-04-29 16:14 | 31.24773 | -102.56745 | 36065 ft | 366 kts | 282° |
| 2026-04-29 16:14 | 31.26064 | -102.62510 | 36065 ft | 366 kts | 282° |
| 2026-04-29 16:15 | 31.27350 | -102.68273 | 36056 ft | 366 kts | 282° |
| 2026-04-29 16:15 | 31.28630 | -102.74029 | 36059 ft | 366 kts | 282° |
| 2026-04-29 16:16 | 31.29910 | -102.79790 | 36060 ft | 366 kts | 282° |
| 2026-04-29 16:16 | 31.31189 | -102.85547 | 36048 ft | 366 kts | 282° |
| 2026-04-29 16:17 | 31.32464 | -102.91308 | 36040 ft | 366 kts | 282° |
| 2026-04-29 16:17 | 31.33738 | -102.97073 | 36042 ft | 366 kts | 281° |
| 2026-04-29 16:18 | 31.35000 | -103.02807 | 36052 ft | 367 kts | 281° |
| 2026-04-29 16:18 | 31.36266 | -103.08565 | 36042 ft | 367 kts | 281° |
| 2026-04-29 16:19 | 31.37527 | -103.14323 | 36052 ft | 367 kts | 281° |
| 2026-04-29 16:19 | 31.38795 | -103.20109 | 36042 ft | 367 kts | 281° |
| 2026-04-29 16:20 | 31.40040 | -103.25818 | 36054 ft | 367 kts | 281° |
| 2026-04-29 16:20 | 31.41297 | -103.31603 | 36055 ft | 367 kts | 281° |
| 2026-04-29 16:21 | 31.42553 | -103.37383 | 36049 ft | 366 kts | 281° |
| 2026-04-29 16:21 | 31.43805 | -103.43161 | 36049 ft | 366 kts | 281° |
| 2026-04-29 16:22 | 31.45054 | -103.48936 | 36052 ft | 365 kts | 281° |
| 2026-04-29 16:22 | 31.46298 | -103.54700 | 36050 ft | 365 kts | 281° |
| 2026-04-29 16:23 | 31.47494 | -103.60470 | 36053 ft | 364 kts | 279° |
| 2026-04-29 16:23 | 31.48530 | -103.66183 | 36057 ft | 363 kts | 279° |
| 2026-04-29 16:24 | 31.49554 | -103.71934 | 36051 ft | 363 kts | 279° |
| 2026-04-29 16:24 | 31.50591 | -103.77715 | 36054 ft | 362 kts | 279° |
| 2026-04-29 16:25 | 31.51633 | -103.83496 | 36065 ft | 362 kts | 279° |
| 2026-04-29 16:25 | 31.52673 | -103.89266 | 36064 ft | 362 kts | 279° |
| 2026-04-29 16:26 | 31.53713 | -103.95028 | 36062 ft | 362 kts | 279° |
| 2026-04-29 16:26 | 31.54747 | -104.00792 | 36073 ft | 361 kts | 279° |
| 2026-04-29 16:27 | 31.55779 | -104.06551 | 36069 ft | 361 kts | 278° |
| 2026-04-29 16:27 | 31.56807 | -104.12306 | 36064 ft | 361 kts | 278° |
| 2026-04-29 16:28 | 31.57833 | -104.18065 | 36072 ft | 361 kts | 278° |
| 2026-04-29 16:28 | 31.58858 | -104.23836 | 36076 ft | 361 kts | 278° |
| 2026-04-29 16:29 | 31.59878 | -104.29603 | 36086 ft | 361 kts | 278° |
| 2026-04-29 16:29 | 31.60898 | -104.35373 | 36097 ft | 361 kts | 278° |
| 2026-04-29 16:30 | 31.61916 | -104.41149 | 36100 ft | 361 kts | 278° |
| 2026-04-29 16:30 | 31.62930 | -104.46921 | 36104 ft | 361 kts | 278° |
| 2026-04-29 16:31 | 31.63943 | -104.52700 | 36100 ft | 362 kts | 278° |
| 2026-04-29 16:31 | 31.64954 | -104.58491 | 36105 ft | 362 kts | 278° |
| 2026-04-29 16:32 | 31.65963 | -104.64281 | 36104 ft | 363 kts | 278° |
| 2026-04-29 16:32 | 31.66973 | -104.70087 | 36098 ft | 363 kts | 278° |
| 2026-04-29 16:33 | 31.68477 | -104.78777 | 36107 ft | 364 kts | 278° |
| 2026-04-29 16:33 | 31.69484 | -104.84618 | 36106 ft | 365 kts | 278° |
| 2026-04-29 16:34 | 31.70491 | -104.90470 | 36102 ft | 366 kts | 278° |
| 2026-04-29 16:34 | 31.71497 | -104.96337 | 36103 ft | 366 kts | 278° |
| 2026-04-29 16:35 | 31.72500 | -105.02200 | 36110 ft | 366 kts | 278° |
| 2026-04-29 16:35 | 31.73498 | -105.08054 | 36112 ft | 366 kts | 278° |
| 2026-04-29 16:36 | 31.74494 | -105.13911 | 36111 ft | 365 kts | 278° |
| 2026-04-29 16:36 | 31.75487 | -105.19771 | 36110 ft | 366 kts | 278° |
| 2026-04-29 16:37 | 31.76460 | -105.25521 | 36109 ft | 365 kts | 278° |
| 2026-04-29 16:37 | 31.77280 | -105.30382 | 36110 ft | 364 kts | 278° |
| 2026-04-29 16:38 | 31.78427 | -105.37199 | 36112 ft | 363 kts | 278° |
| 2026-04-29 16:38 | 31.79405 | -105.43029 | 36108 ft | 363 kts | 278° |
| 2026-04-29 16:39 | 31.80376 | -105.48845 | 36111 ft | 362 kts | 278° |
| 2026-04-29 16:39 | 31.81344 | -105.54650 | 36112 ft | 362 kts | 277° |
| 2026-04-29 16:40 | 31.82310 | -105.60464 | 36110 ft | 362 kts | 277° |
| 2026-04-29 16:40 | 31.83265 | -105.66234 | 36120 ft | 361 kts | 277° |
| 2026-04-29 16:41 | 31.84222 | -105.72033 | 36115 ft | 361 kts | 277° |
| 2026-04-29 16:41 | 31.85176 | -105.77825 | 36119 ft | 360 kts | 277° |
| 2026-04-29 16:42 | 31.86126 | -105.83609 | 36121 ft | 360 kts | 277° |
| 2026-04-29 16:42 | 31.87074 | -105.89396 | 36135 ft | 360 kts | 277° |
| 2026-04-29 16:43 | 31.88018 | -105.95184 | 36135 ft | 360 kts | 277° |
| 2026-04-29 16:43 | 31.88960 | -106.00975 | 36121 ft | 361 kts | 277° |
| 2026-04-29 16:44 | 31.89900 | -106.06769 | 36137 ft | 361 kts | 277° |
| 2026-04-29 16:44 | 31.90838 | -106.12568 | 36130 ft | 361 kts | 277° |
| 2026-04-29 16:45 | 31.91774 | -106.18366 | 36132 ft | 361 kts | 277° |
| 2026-04-29 16:45 | 31.92706 | -106.24165 | 36132 ft | 360 kts | 277° |
| 2026-04-29 16:46 | 31.93476 | -106.28976 | 36134 ft | 360 kts | 277° |
| 2026-04-29 16:46 | 31.94403 | -106.34769 | 36130 ft | 360 kts | 277° |
| 2026-04-29 16:47 | 31.95327 | -106.40562 | 36125 ft | 360 kts | 277° |
| 2026-04-29 16:47 | 31.96249 | -106.46365 | 36124 ft | 361 kts | 277° |
| 2026-04-29 16:48 | 31.97169 | -106.52172 | 36149 ft | 361 kts | 277° |
| 2026-04-29 16:48 | 31.98088 | -106.58001 | 36147 ft | 362 kts | 277° |
| 2026-04-29 16:49 | 31.99009 | -106.63844 | 36146 ft | 363 kts | 277° |
| 2026-04-29 16:49 | 31.99928 | -106.69691 | 36145 ft | 363 kts | 277° |
| 2026-04-29 16:50 | 32.00841 | -106.75524 | 36156 ft | 362 kts | 277° |
| 2026-04-29 16:50 | 32.01750 | -106.81346 | 36146 ft | 360 kts | 277° |
| 2026-04-29 16:51 | 32.02651 | -106.87137 | 36145 ft | 358 kts | 277° |
| 2026-04-29 16:51 | 32.03545 | -106.92907 | 36145 ft | 357 kts | 277° |
| 2026-04-29 16:52 | 32.04433 | -106.98649 | 36155 ft | 355 kts | 277° |
| 2026-04-29 16:52 | 32.05308 | -107.04332 | 36155 ft | 354 kts | 276° |
| 2026-04-29 16:53 | 32.06183 | -107.10038 | 36158 ft | 354 kts | 276° |
| 2026-04-29 16:53 | 32.07056 | -107.15743 | 36157 ft | 353 kts | 276° |
| 2026-04-29 16:54 | 32.07925 | -107.21441 | 36158 ft | 353 kts | 277° |
| 2026-04-29 16:54 | 32.08794 | -107.27142 | 36156 ft | 354 kts | 277° |
| 2026-04-29 16:55 | 32.09657 | -107.32838 | 36155 ft | 353 kts | 277° |
| 2026-04-29 16:55 | 32.10521 | -107.38543 | 36152 ft | 353 kts | 277° |
| 2026-04-29 16:56 | 32.11380 | -107.44245 | 36155 ft | 353 kts | 277° |
| 2026-04-29 16:56 | 32.12238 | -107.49956 | 36165 ft | 354 kts | 276° |
| 2026-04-29 16:57 | 32.13093 | -107.55672 | 36164 ft | 354 kts | 276° |
| 2026-04-29 16:57 | 32.13946 | -107.61391 | 36159 ft | 354 kts | 277° |
| 2026-04-29 16:58 | 32.14798 | -107.67120 | 36163 ft | 356 kts | 276° |
| 2026-04-29 16:58 | 32.15652 | -107.72874 | 36164 ft | 357 kts | 277° |
| 2026-04-29 16:59 | 32.16504 | -107.78640 | 36167 ft | 357 kts | 277° |
| 2026-04-29 16:59 | 32.17357 | -107.84420 | 36164 ft | 357 kts | 277° |
| 2026-04-29 17:00 | 32.18205 | -107.90200 | 36164 ft | 358 kts | 277° |
| 2026-04-29 17:00 | 32.19053 | -107.95988 | 36168 ft | 358 kts | 277° |
| 2026-04-29 17:01 | 32.19893 | -108.01741 | 36174 ft | 358 kts | 277° |
| 2026-04-29 17:01 | 32.20736 | -108.07537 | 36174 ft | 358 kts | 277° |
| 2026-04-29 17:02 | 32.21575 | -108.13323 | 36176 ft | 357 kts | 277° |
| 2026-04-29 17:02 | 32.22411 | -108.19110 | 36178 ft | 357 kts | 276° |
| 2026-04-29 17:03 | 32.23243 | -108.24893 | 36182 ft | 357 kts | 276° |
| 2026-04-29 17:03 | 32.24074 | -108.30682 | 36187 ft | 357 kts | 276° |
| 2026-04-29 17:04 | 32.24901 | -108.36471 | 36177 ft | 357 kts | 276° |
| 2026-04-29 17:04 | 32.25726 | -108.42257 | 36178 ft | 357 kts | 276° |
| 2026-04-29 17:05 | 32.26548 | -108.48045 | 36177 ft | 357 kts | 276° |
| 2026-04-29 17:05 | 32.27368 | -108.53834 | 36172 ft | 357 kts | 276° |
| 2026-04-29 17:06 | 32.28185 | -108.59623 | 36163 ft | 357 kts | 276° |
| 2026-04-29 17:06 | 32.28998 | -108.65400 | 36165 ft | 356 kts | 276° |
| 2026-04-29 17:07 | 32.29807 | -108.71171 | 36169 ft | 355 kts | 276° |
| 2026-04-29 17:07 | 32.30611 | -108.76927 | 36170 ft | 355 kts | 276° |
| 2026-04-29 17:08 | 32.31412 | -108.82681 | 36165 ft | 355 kts | 275° |
| 2026-04-29 17:08 | 32.32209 | -108.88437 | 36164 ft | 355 kts | 275° |
| 2026-04-29 17:09 | 32.33001 | -108.94151 | 36169 ft | 354 kts | 275° |
| 2026-04-29 17:09 | 32.33792 | -108.99898 | 36166 ft | 354 kts | 275° |
| 2026-04-29 17:10 | 32.34580 | -109.05644 | 36169 ft | 354 kts | 275° |
| 2026-04-29 17:10 | 32.35372 | -109.11430 | 36170 ft | 354 kts | 275° |
| 2026-04-29 17:11 | 32.36157 | -109.17183 | 36170 ft | 355 kts | 275° |
| 2026-04-29 17:11 | 32.36935 | -109.22920 | 36164 ft | 356 kts | 275° |
| 2026-04-29 17:12 | 32.37719 | -109.28709 | 36159 ft | 357 kts | 275° |
| 2026-04-29 17:12 | 32.38375 | -109.33577 | 36154 ft | 358 kts | 275° |
| 2026-04-29 17:13 | 32.39284 | -109.40339 | 36157 ft | 359 kts | 275° |
| 2026-04-29 17:13 | 32.40067 | -109.46178 | 36146 ft | 359 kts | 275° |
| 2026-04-29 17:14 | 32.40847 | -109.52021 | 36149 ft | 360 kts | 275° |
| 2026-04-29 17:14 | 32.41624 | -109.57869 | 36154 ft | 360 kts | 275° |
| 2026-04-29 17:15 | 32.42399 | -109.63718 | 36154 ft | 360 kts | 275° |
| 2026-04-29 17:15 | 32.43172 | -109.69579 | 36160 ft | 360 kts | 275° |
| 2026-04-29 17:16 | 32.43948 | -109.75450 | 36158 ft | 362 kts | 275° |
| 2026-04-29 17:16 | 32.45352 | -109.81215 | 36163 ft | 369 kts | 284° |
| 2026-04-29 17:17 | 32.47165 | -109.86906 | 36152 ft | 370 kts | 284° |
| 2026-04-29 17:17 | 32.48979 | -109.92612 | 36159 ft | 370 kts | 284° |
| 2026-04-29 17:18 | 32.50774 | -109.98296 | 36157 ft | 370 kts | 284° |
| 2026-04-29 17:18 | 32.52570 | -110.04014 | 36157 ft | 370 kts | 283° |
| 2026-04-29 17:19 | 32.54361 | -110.09738 | 36156 ft | 369 kts | 283° |
| 2026-04-29 17:19 | 32.56138 | -110.15436 | 36159 ft | 369 kts | 283° |
| 2026-04-29 17:20 | 32.57906 | -110.21106 | 36157 ft | 369 kts | 283° |
| 2026-04-29 17:20 | 32.59678 | -110.26806 | 36157 ft | 368 kts | 284° |
| 2026-04-29 17:21 | 32.61455 | -110.32505 | 36161 ft | 369 kts | 283° |
| 2026-04-29 17:21 | 32.63219 | -110.38207 | 36159 ft | 368 kts | 283° |
| 2026-04-29 17:22 | 32.64981 | -110.43907 | 36187 ft | 368 kts | 283° |
| 2026-04-29 17:22 | 32.66743 | -110.49624 | 36172 ft | 368 kts | 283° |
| 2026-04-29 17:23 | 32.68499 | -110.55320 | 36182 ft | 368 kts | 283° |
| 2026-04-29 17:23 | 32.70254 | -110.61023 | 36190 ft | 366 kts | 283° |
| 2026-04-29 17:24 | 32.71999 | -110.66700 | 36179 ft | 365 kts | 283° |
| 2026-04-29 17:24 | 32.73724 | -110.72331 | 36183 ft | 364 kts | 283° |
| 2026-04-29 17:25 | 32.75439 | -110.77937 | 36179 ft | 363 kts | 282° |
| 2026-04-29 17:25 | 32.77163 | -110.83586 | 36162 ft | 364 kts | 282° |
| 2026-04-29 17:26 | 32.78887 | -110.89245 | 36159 ft | 364 kts | 282° |
| 2026-04-29 17:26 | 32.80607 | -110.94900 | 36149 ft | 364 kts | 282° |
| 2026-04-29 17:27 | 32.82328 | -111.00569 | 36127 ft | 365 kts | 282° |
| 2026-04-29 17:27 | 32.84052 | -111.06257 | 36119 ft | 366 kts | 282° |
| 2026-04-29 17:28 | 32.85767 | -111.11972 | 36121 ft | 367 kts | 282° |
| 2026-04-29 17:28 | 32.87465 | -111.17715 | 36100 ft | 370 kts | 282° |
| 2026-04-29 17:29 | 32.89217 | -111.23467 | 36089 ft | 370 kts | 282° |
| 2026-04-29 17:29 | 32.90670 | -111.28240 | 36076 ft | 369 kts | 282° |
| 2026-04-29 17:30 | 32.92700 | -111.34951 | 36070 ft | 368 kts | 282° |
| 2026-04-29 17:30 | 32.94433 | -111.40685 | 36074 ft | 368 kts | 282° |
| 2026-04-29 17:31 | 32.96127 | -111.46408 | 36078 ft | 366 kts | 282° |
| 2026-04-29 17:31 | 32.97829 | -111.52114 | 36071 ft | 365 kts | 282° |
| 2026-04-29 17:32 | 32.99242 | -111.56850 | 36074 ft | 365 kts | 282° |
| 2026-04-29 17:32 | 33.00937 | -111.62541 | 36072 ft | 364 kts | 282° |
| 2026-04-29 17:33 | 33.02607 | -111.68167 | 36074 ft | 364 kts | 282° |
| 2026-04-29 17:33 | 33.04292 | -111.73856 | 36075 ft | 365 kts | 282° |
| 2026-04-29 17:34 | 33.05979 | -111.79559 | 36074 ft | 365 kts | 282° |
| 2026-04-29 17:34 | 33.07661 | -111.85256 | 36079 ft | 364 kts | 282° |
| 2026-04-29 17:35 | 33.10180 | -111.93808 | 36082 ft | 364 kts | 282° |
| 2026-04-29 17:36 | 33.11855 | -111.99512 | 36083 ft | 364 kts | 281° |
| 2026-04-29 17:36 | 33.13518 | -112.05185 | 36071 ft | 365 kts | 281° |
| 2026-04-29 17:37 | 33.15194 | -112.10909 | 36073 ft | 366 kts | 281° |
| 2026-04-29 17:37 | 33.16868 | -112.16644 | 36067 ft | 366 kts | 281° |
| 2026-04-29 17:38 | 33.18532 | -112.22380 | 36074 ft | 366 kts | 281° |
| 2026-04-29 17:38 | 33.20210 | -112.28133 | 36054 ft | 368 kts | 281° |
| 2026-04-29 17:39 | 33.21890 | -112.33912 | 36056 ft | 368 kts | 281° |
| 2026-04-29 17:39 | 33.23567 | -112.39695 | 36056 ft | 370 kts | 281° |
| 2026-04-29 17:40 | 33.25246 | -112.45499 | 36046 ft | 369 kts | 281° |
| 2026-04-29 17:40 | 33.26918 | -112.51289 | 36048 ft | 369 kts | 281° |
| 2026-04-29 17:41 | 33.28587 | -112.57084 | 36056 ft | 368 kts | 281° |
| 2026-04-29 17:41 | 33.30252 | -112.62879 | 36047 ft | 369 kts | 281° |
| 2026-04-29 17:42 | 33.31916 | -112.68675 | 36052 ft | 368 kts | 281° |
| 2026-04-29 17:42 | 33.33575 | -112.74470 | 36061 ft | 368 kts | 281° |
| 2026-04-29 17:43 | 33.35231 | -112.80267 | 36049 ft | 368 kts | 281° |
| 2026-04-29 17:43 | 33.36883 | -112.86056 | 36063 ft | 367 kts | 281° |
| 2026-04-29 17:44 | 33.38531 | -112.91849 | 36053 ft | 367 kts | 281° |
| 2026-04-29 17:44 | 33.40177 | -112.97648 | 36059 ft | 368 kts | 281° |
| 2026-04-29 17:45 | 33.41824 | -113.03455 | 36057 ft | 368 kts | 281° |
| 2026-04-29 17:45 | 33.43467 | -113.09277 | 36039 ft | 370 kts | 280° |
| 2026-04-29 17:46 | 33.45109 | -113.15082 | 36042 ft | 370 kts | 280° |
| 2026-04-29 17:46 | 33.46757 | -113.20928 | 36046 ft | 370 kts | 280° |
| 2026-04-29 17:47 | 33.48399 | -113.26764 | 36046 ft | 370 kts | 281° |
| 2026-04-29 17:47 | 33.50036 | -113.32599 | 36045 ft | 370 kts | 280° |
| 2026-04-29 17:48 | 33.51673 | -113.38444 | 36041 ft | 370 kts | 280° |
| 2026-04-29 17:48 | 33.53307 | -113.44293 | 36048 ft | 371 kts | 280° |
| 2026-04-29 17:49 | 33.54943 | -113.50158 | 36047 ft | 371 kts | 280° |
| 2026-04-29 17:49 | 33.56577 | -113.56032 | 36055 ft | 372 kts | 280° |
| 2026-04-29 17:50 | 33.58211 | -113.61921 | 36043 ft | 373 kts | 280° |
| 2026-04-29 17:50 | 33.59847 | -113.67823 | 36051 ft | 373 kts | 280° |
| 2026-04-29 17:51 | 33.61481 | -113.73732 | 36044 ft | 373 kts | 280° |
| 2026-04-29 17:51 | 33.63115 | -113.79652 | 36045 ft | 374 kts | 280° |
| 2026-04-29 17:52 | 33.64746 | -113.85566 | 36066 ft | 374 kts | 281° |
| 2026-04-29 17:52 | 33.66807 | -113.91330 | 36051 ft | 380 kts | 286° |
| 2026-04-29 17:53 | 33.69079 | -113.97112 | 36048 ft | 380 kts | 286° |
| 2026-04-29 17:53 | 33.71292 | -114.02843 | 36063 ft | 380 kts | 285° |
| 2026-04-29 17:54 | 33.73505 | -114.08617 | 36051 ft | 380 kts | 285° |
| 2026-04-29 17:54 | 33.75555 | -114.14434 | 36050 ft | 373 kts | 279° |
| 2026-04-29 17:55 | 33.76528 | -114.20418 | 36050 ft | 366 kts | 271° |
| 2026-04-29 17:55 | 33.77215 | -114.26485 | 36045 ft | 367 kts | 272° |
| 2026-04-29 17:56 | 33.77908 | -114.32559 | 36043 ft | 367 kts | 272° |
| 2026-04-29 17:56 | 33.78611 | -114.38652 | 36048 ft | 368 kts | 272° |
| 2026-04-29 17:57 | 33.79315 | -114.44736 | 36040 ft | 368 kts | 271° |
| 2026-04-29 17:57 | 33.80015 | -114.50814 | 36050 ft | 367 kts | 271° |
| 2026-04-29 17:58 | 33.80712 | -114.56894 | 36043 ft | 367 kts | 271° |
| 2026-04-29 17:58 | 33.81406 | -114.62967 | 36028 ft | 367 kts | 271° |
| 2026-04-29 17:59 | 33.82096 | -114.69024 | 36043 ft | 366 kts | 271° |
| 2026-04-29 17:59 | 33.82781 | -114.75092 | 36041 ft | 366 kts | 271° |
| 2026-04-29 18:00 | 33.83465 | -114.81162 | 36043 ft | 366 kts | 271° |
| 2026-04-29 18:00 | 33.84149 | -114.87240 | 36051 ft | 367 kts | 271° |
| 2026-04-29 18:01 | 33.84827 | -114.93322 | 36051 ft | 367 kts | 271° |
| 2026-04-29 18:01 | 33.85508 | -114.99414 | 36056 ft | 367 kts | 271° |
| 2026-04-29 18:02 | 33.86184 | -115.05499 | 36061 ft | 367 kts | 271° |
| 2026-04-29 18:02 | 33.86856 | -115.11583 | 36057 ft | 367 kts | 271° |
| 2026-04-29 18:03 | 33.87525 | -115.17666 | 36051 ft | 366 kts | 271° |
| 2026-04-29 18:03 | 33.88212 | -115.23738 | 36057 ft | 366 kts | 271° |
| 2026-04-29 18:04 | 33.88855 | -115.29807 | 36055 ft | 366 kts | 271° |
| 2026-04-29 18:04 | 33.89508 | -115.35871 | 36056 ft | 366 kts | 271° |
| 2026-04-29 18:05 | 33.90164 | -115.41943 | 36047 ft | 366 kts | 271° |
| 2026-04-29 18:05 | 33.90821 | -115.47982 | 36055 ft | 366 kts | 271° |
| 2026-04-29 18:06 | 33.91474 | -115.54062 | 36051 ft | 366 kts | 271° |
| 2026-04-29 18:06 | 33.92121 | -115.60153 | 36051 ft | 367 kts | 271° |
| 2026-04-29 18:07 | 33.92748 | -115.66251 | 36063 ft | 366 kts | 270° |
| 2026-04-29 18:07 | 33.93196 | -115.72356 | 36062 ft | 366 kts | 269° |
| 2026-04-29 18:08 | 33.93606 | -115.78456 | 36059 ft | 366 kts | 269° |
| 2026-04-29 18:08 | 33.94026 | -115.84568 | 36066 ft | 367 kts | 269° |
| 2026-04-29 18:09 | 33.94454 | -115.90692 | 36064 ft | 367 kts | 269° |
| 2026-04-29 18:09 | 33.94880 | -115.96826 | 35701 ft | 372 kts | 269° |
| 2026-04-29 18:09 | 33.95095 | -115.99930 | 35061 ft | 372 kts | 269° |
| 2026-04-29 18:10 | 33.95307 | -116.03017 | 34328 ft | 369 kts | 269° |
| 2026-04-29 18:10 | 33.95519 | -116.06103 | 33516 ft | 369 kts | 269° |
| 2026-04-29 18:10 | 33.95729 | -116.09181 | 32674 ft | 369 kts | 269° |
| 2026-04-29 18:10 | 33.95936 | -116.12207 | 32065 ft | 365 kts | 269° |
| 2026-04-29 18:11 | 33.96145 | -116.15240 | 31413 ft | 361 kts | 269° |
| 2026-04-29 18:11 | 33.96350 | -116.18242 | 30806 ft | 357 kts | 269° |
| 2026-04-29 18:11 | 33.96422 | -116.21198 | 30236 ft | 349 kts | 261° |
| 2026-04-29 18:11 | 33.96072 | -116.24076 | 29725 ft | 350 kts | 258° |
| 2026-04-29 18:12 | 33.95679 | -116.26978 | 29086 ft | 351 kts | 258° |
| 2026-04-29 18:12 | 33.95303 | -116.29864 | 28475 ft | 347 kts | 258° |
| 2026-04-29 18:12 | 33.94941 | -116.32732 | 27830 ft | 346 kts | 259° |
| 2026-04-29 18:12 | 33.94599 | -116.35591 | 27258 ft | 343 kts | 258° |
| 2026-04-29 18:13 | 33.94250 | -116.38432 | 26652 ft | 344 kts | 258° |
| 2026-04-29 18:13 | 33.93917 | -116.41322 | 26029 ft | 354 kts | 260° |
| 2026-04-29 18:13 | 33.93518 | -116.44265 | 25414 ft | 357 kts | 259° |
| 2026-04-29 18:13 | 33.93150 | -116.47168 | 24789 ft | 354 kts | 259° |
| 2026-04-29 18:14 | 33.92788 | -116.50120 | 24163 ft | 351 kts | 259° |
| 2026-04-29 18:14 | 33.92435 | -116.52999 | 23560 ft | 353 kts | 260° |
| 2026-04-29 18:14 | 33.92071 | -116.55923 | 22988 ft | 354 kts | 260° |
| 2026-04-29 18:14 | 33.91693 | -116.58890 | 22392 ft | 354 kts | 260° |
| 2026-04-29 18:15 | 33.91317 | -116.61796 | 21778 ft | 350 kts | 260° |
| 2026-04-29 18:15 | 33.90941 | -116.64678 | 21164 ft | 346 kts | 260° |
| 2026-04-29 18:15 | 33.90576 | -116.67488 | 20574 ft | 343 kts | 260° |
| 2026-04-29 18:15 | 33.90205 | -116.70343 | 19965 ft | 340 kts | 260° |
| 2026-04-29 18:16 | 33.89847 | -116.73106 | 19388 ft | 336 kts | 260° |
| 2026-04-29 18:16 | 33.89488 | -116.75871 | 18808 ft | 333 kts | 261° |
| 2026-04-29 18:16 | 33.89164 | -116.78645 | 18256 ft | 329 kts | 262° |
| 2026-04-29 18:16 | 33.88875 | -116.81361 | 17641 ft | 327 kts | 262° |
| 2026-04-29 18:17 | 33.88593 | -116.84032 | 17036 ft | 326 kts | 262° |
| 2026-04-29 18:17 | 33.88398 | -116.85859 | 16648 ft | 326 kts | 262° |
| 2026-04-29 18:17 | 33.88010 | -116.89438 | 15875 ft | 324 kts | 262° |
| 2026-04-29 18:17 | 33.87718 | -116.92114 | 15296 ft | 323 kts | 262° |
| 2026-04-29 18:18 | 33.87426 | -116.94783 | 14715 ft | 320 kts | 262° |
| 2026-04-29 18:18 | 33.87229 | -116.96572 | 14316 ft | 319 kts | 262° |
| 2026-04-29 18:18 | 33.86939 | -116.99203 | 13803 ft | 316 kts | 262° |
| 2026-04-29 18:18 | 33.86648 | -117.01827 | 13382 ft | 317 kts | 262° |
| 2026-04-29 18:19 | 33.86361 | -117.04416 | 12955 ft | 319 kts | 262° |
| 2026-04-29 18:19 | 33.86065 | -117.07089 | 12507 ft | 320 kts | 262° |
| 2026-04-29 18:19 | 33.85774 | -117.09710 | 12076 ft | 321 kts | 262° |
| 2026-04-29 18:19 | 33.85477 | -117.12376 | 11633 ft | 322 kts | 262° |
| 2026-04-29 18:20 | 33.85181 | -117.15015 | 11189 ft | 323 kts | 262° |
| 2026-04-29 18:20 | 33.84880 | -117.17706 | 10731 ft | 317 kts | 262° |
| 2026-04-29 18:20 | 33.84589 | -117.20311 | 10299 ft | 311 kts | 262° |
| 2026-04-29 18:20 | 33.84305 | -117.22835 | 9929 ft | 304 kts | 262° |
| 2026-04-29 18:21 | 33.84026 | -117.25317 | 9702 ft | 293 kts | 262° |
| 2026-04-29 18:21 | 33.83756 | -117.27704 | 9477 ft | 284 kts | 262° |
| 2026-04-29 18:21 | 33.83493 | -117.30034 | 9273 ft | 281 kts | 262° |
| 2026-04-29 18:21 | 33.83229 | -117.32365 | 9069 ft | 281 kts | 262° |
| 2026-04-29 18:22 | 33.82965 | -117.34696 | 8865 ft | 281 kts | 262° |
| 2026-04-29 18:22 | 33.82702 | -117.37013 | 8666 ft | 280 kts | 262° |
| 2026-04-29 18:22 | 33.82438 | -117.39336 | 8457 ft | 280 kts | 262° |
| 2026-04-29 18:22 | 33.82177 | -117.41632 | 8247 ft | 274 kts | 262° |
| 2026-04-29 18:23 | 33.81923 | -117.43868 | 8070 ft | 265 kts | 262° |
| 2026-04-29 18:23 | 33.81524 | -117.45954 | 7994 ft | 253 kts | 249° |
| 2026-04-29 18:23 | 33.80870 | -117.47920 | 7995 ft | 250 kts | 248° |
| 2026-04-29 18:23 | 33.80237 | -117.49837 | 7988 ft | 240 kts | 248° |
| 2026-04-29 18:24 | 33.79654 | -117.51636 | 8008 ft | 223 kts | 249° |
| 2026-04-29 18:24 | 33.79255 | -117.53394 | 7991 ft | 217 kts | 271° |
| 2026-04-29 18:24 | 33.79707 | -117.55074 | 7999 ft | 216 kts | 308° |
| 2026-04-29 18:24 | 33.80887 | -117.56171 | 8006 ft | 218 kts | 341° |
| 2026-04-29 18:25 | 33.82380 | -117.56352 | 8019 ft | 218 kts | 10° |
| 2026-04-29 18:25 | 33.83849 | -117.55889 | 8015 ft | 219 kts | 17° |
| 2026-04-29 18:25 | 33.85312 | -117.55354 | 8009 ft | 221 kts | 18° |
| 2026-04-29 18:25 | 33.86747 | -117.54830 | 7994 ft | 219 kts | 17° |
| 2026-04-29 18:26 | 33.88182 | -117.54312 | 7840 ft | 211 kts | 17° |
| 2026-04-29 18:26 | 33.89576 | -117.53888 | 7581 ft | 205 kts | 2° |
| 2026-04-29 18:26 | 33.90910 | -117.54359 | 7192 ft | 203 kts | 322° |
| 2026-04-29 18:26 | 33.91729 | -117.55711 | 6782 ft | 202 kts | 287° |
| 2026-04-29 18:27 | 33.91929 | -117.57368 | 6431 ft | 200 kts | 271° |
| 2026-04-29 18:27 | 33.91946 | -117.59033 | 6076 ft | 199 kts | 270° |
| 2026-04-29 18:27 | 33.91949 | -117.60685 | 5722 ft | 197 kts | 270° |
| 2026-04-29 18:27 | 33.91956 | -117.62332 | 5408 ft | 194 kts | 270° |
| 2026-04-29 18:28 | 33.91968 | -117.63951 | 5191 ft | 193 kts | 270° |
| 2026-04-29 18:28 | 33.91981 | -117.65562 | 5011 ft | 194 kts | 270° |
| 2026-04-29 18:28 | 33.91995 | -117.67177 | 4836 ft | 196 kts | 270° |
| 2026-04-29 18:28 | 33.92012 | -117.68817 | 4664 ft | 196 kts | 270° |
| 2026-04-29 18:29 | 33.91970 | -117.70436 | 4474 ft | 193 kts | 256° |
| 2026-04-29 18:29 | 33.91561 | -117.71367 | 4343 ft | 189 kts | 224° |
| 2026-04-29 18:29 | 33.90145 | -117.72574 | 4186 ft | 190 kts | 210° |
| 2026-04-29 18:29 | 33.88969 | -117.73338 | 4002 ft | 194 kts | 208° |
| 2026-04-29 18:30 | 33.87795 | -117.74076 | 3820 ft | 189 kts | 208° |
| 2026-04-29 18:30 | 33.86667 | -117.74787 | 3659 ft | 177 kts | 208° |
| 2026-04-29 18:30 | 33.85605 | -117.75459 | 3509 ft | 171 kts | 208° |
| 2026-04-29 18:30 | 33.84548 | -117.76128 | 3342 ft | 172 kts | 208° |
| 2026-04-29 18:31 | 33.83498 | -117.76792 | 3170 ft | 169 kts | 208° |
| 2026-04-29 18:31 | 33.82458 | -117.77450 | 3082 ft | 170 kts | 208° |
| 2026-04-29 18:31 | 33.81412 | -117.78113 | 2967 ft | 170 kts | 208° |
| 2026-04-29 18:31 | 33.80364 | -117.78778 | 2751 ft | 170 kts | 208° |
| 2026-04-29 18:32 | 33.79336 | -117.79429 | 2551 ft | 163 kts | 208° |
| 2026-04-29 18:32 | 33.77361 | -117.80672 | 2120 ft | 161 kts | 208° |
| 2026-04-29 18:32 | 33.76410 | -117.81281 | 1928 ft | 146 kts | 208° |
| 2026-04-29 18:33 | 33.75565 | -117.81816 | 1729 ft | 137 kts | 207° |
| 2026-04-29 18:33 | 33.74749 | -117.82334 | 1534 ft | 127 kts | 207° |
| 2026-04-29 18:33 | 33.73986 | -117.82817 | 1383 ft | 124 kts | 207° |
| 2026-04-29 18:33 | 33.73219 | -117.83296 | 1245 ft | 125 kts | 207° |
| 2026-04-29 18:34 | 33.72438 | -117.83788 | 1069 ft | 129 kts | 207° |
| 2026-04-29 18:34 | 33.71908 | -117.84122 | 953 ft | 130 kts | 207° |
| 2026-04-29 18:34 | 33.70842 | -117.84817 | 715 ft | 130 kts | 206° |
| 2026-04-29 18:34 | 33.70043 | -117.85309 | 525 ft | 128 kts | 207° |
| 2026-04-29 18:35 | 33.69249 | -117.85814 | 389 ft | 127 kts | 205° |
| 2026-04-29 18:35 | 33.68462 | -117.86315 | 168 ft | 128 kts | 208° |
| 2026-04-29 18:35 | 33.67711 | -117.86795 | 53 ft | 117 kts | 207° |
| 2026-04-29 18:35 | 33.67169 | -117.87141 | 57 ft | 59 kts | 207° |
| 2026-04-29 18:36 | 33.66960 | -117.87271 | 58 ft | 23 kts | 208° |
| 2026-04-29 18:36 | 33.66843 | -117.87345 | 54 ft | 11 kts | 207° |
| 2026-04-29 18:36 | 33.66779 | -117.87345 | 59 ft | 6 kts | 136° |
| 2026-04-29 18:36 | 33.66763 | -117.87303 | 53 ft | 6 kts | 113° |
| 2026-04-29 18:37 | 33.66759 | -117.87259 | 59 ft | 5 kts | 66° |
| 2026-04-29 18:37 | 33.66791 | -117.87222 | 55 ft | 9 kts | 41° |
| 2026-04-29 18:37 | 33.66845 | -117.87163 | 53 ft | 11 kts | 41° |
| 2026-04-29 18:37 | 33.66905 | -117.87103 | 54 ft | 11 kts | 39° |
| 2026-04-29 18:38 | 33.66963 | -117.87044 | 55 ft | 11 kts | 40° |
| 2026-04-29 18:38 | 33.67016 | -117.86989 | 52 ft | 9 kts | 41° |
| 2026-04-29 18:38 | 33.67063 | -117.86940 | 57 ft | 9 kts | 41° |
| 2026-04-29 18:38 | 33.67110 | -117.86892 | 56 ft | 9 kts | 39° |
| 2026-04-29 18:39 | 33.67159 | -117.86851 | 54 ft | 8 kts | 33° |
| 2026-04-29 18:39 | 33.67213 | -117.86813 | 50 ft | 10 kts | 29° |
| 2026-04-29 18:39 | 33.67287 | -117.86759 | 55 ft | 14 kts | 41° |
| 2026-04-29 18:39 | 33.67367 | -117.86677 | 50 ft | 15 kts | 27° |
| 2026-04-29 18:40 | 33.67455 | -117.86622 | 52 ft | 13 kts | 28° |
| 2026-04-29 18:40 | 33.67535 | -117.86571 | 48 ft | 13 kts | 27° |
| 2026-04-29 18:40 | 33.67603 | -117.86528 | 54 ft | 9 kts | 27° |
| 2026-04-29 18:40 | 33.67633 | -117.86498 | 54 ft | 4 kts | 84° |
| 2026-04-29 18:41 | 33.67609 | -117.86438 | 49 ft | 0 kts | 118° |